Terminal Aerodrome Forecast
Issued by NWS

Home | Current Version | Previous Version | Text Only | Print | Product List | Glossary On
Versions: 1 2 3 4 5 6 7 8 9 10 11 12 13 14 15 16
000
FTUS44 KLIX 172340
TAFMSY
TAF
KMSY 172340Z 1800/1906 15004KT 4SM BR BKN005
     FM180400 17004KT 1/2SM FG BKN003
     FM181500 16004KT 1SM SHRA BR BKN005
     FM181800 17005KT P6SM BKN008 OVC030 PROB30 1818/1819 3/4SM
      -SHRA
     FM181900 17005KT P6SM BKN008 OVC025 PROB30 1819/1824 4SM -SHRA
      OVC003
     FM190000 VRB03KT P6SM BKN005 BKN008=

USA.gov is the U.S. government's official web portal to all federal, state and local government web resources and services.